sensor_id;sensor_type;location;lat;lon;timestamp;temperature;humidity
316;DHT22;14128;48.686;9.738;2023-07-31T00:01:12;11.80;1.40
316;DHT22;14128;48.686;9.738;2023-07-31T00:03:38;11.80;1.40
316;DHT22;14128;48.686;9.738;2023-07-31T00:06:07;11.80;1.40
316;DHT22;14128;48.686;9.738;2023-07-31T00:08:33;11.80;1.40
316;DHT22;14128;48.686;9.738;2023-07-31T00:11:00;11.60;1.40
316;DHT22;14128;48.686;9.738;2023-07-31T00:13:27;11.60;1.40
316;DHT22;14128;48.686;9.738;2023-07-31T00:15:54;11.60;1.40
316;DHT22;14128;48.686;9.738;2023-07-31T00:18:21;11.60;1.40
316;DHT22;14128;48.686;9.738;2023-07-31T00:20:47;11.60;1.40
316;DHT22;14128;48.686;9.738;2023-07-31T00:23:16;11.60;1.40
316;DHT22;14128;48.686;9.738;2023-07-31T00:25:42;11.50;1.40
316;DHT22;14128;48.686;9.738;2023-07-31T00:28:10;11.50;1.40
316;DHT22;14128;48.686;9.738;2023-07-31T00:30:36;11.60;1.40
316;DHT22;14128;48.686;9.738;2023-07-31T00:33:03;11.60;1.40
316;DHT22;14128;48.686;9.738;2023-07-31T00:35:30;11.50;1.40
316;DHT22;14128;48.686;9.738;2023-07-31T00:37:58;11.50;1.40
316;DHT22;14128;48.686;9.738;2023-07-31T00:40:26;11.40;1.40
316;DHT22;14128;48.686;9.738;2023-07-31T00:42:53;11.40;1.40
316;DHT22;14128;48.686;9.738;2023-07-31T00:45:20;11.40;1.40
316;DHT22;14128;48.686;9.738;2023-07-31T00:47:49;11.40;1.40
316;DHT22;14128;48.686;9.738;2023-07-31T00:50:16;11.40;1.40
316;DHT22;14128;48.686;9.738;2023-07-31T00:52:43;11.30;1.40
316;DHT22;14128;48.686;9.738;2023-07-31T00:55:10;11.30;1.40
316;DHT22;14128;48.686;9.738;2023-07-31T00:57:39;11.20;1.40
316;DHT22;14128;48.686;9.738;2023-07-31T01:00:08;11.30;1.40
316;DHT22;14128;48.686;9.738;2023-07-31T01:02:35;11.10;1.40
316;DHT22;14128;48.686;9.738;2023-07-31T01:05:03;11.10;1.40
316;DHT22;14128;48.686;9.738;2023-07-31T01:07:35;11.10;1.40
316;DHT22;14128;48.686;9.738;2023-07-31T01:10:11;11.10;1.40
316;DHT22;14128;48.686;9.738;2023-07-31T01:12:40;11.00;1.40
316;DHT22;14128;48.686;9.738;2023-07-31T01:15:09;11.00;1.40
316;DHT22;14128;48.686;9.738;2023-07-31T01:17:36;10.90;1.40
316;DHT22;14128;48.686;9.738;2023-07-31T01:20:05;11.00;1.40
316;DHT22;14128;48.686;9.738;2023-07-31T01:23:15;10.90;1.40
316;DHT22;14128;48.686;9.738;2023-07-31T01:26:03;10.90;1.40
316;DHT22;14128;48.686;9.738;2023-07-31T01:28:36;10.90;1.40
316;DHT22;14128;48.686;9.738;2023-07-31T01:31:07;10.90;1.40
316;DHT22;14128;48.686;9.738;2023-07-31T01:33:37;10.90;1.40
316;DHT22;14128;48.686;9.738;2023-07-31T01:36:04;10.80;1.40
316;DHT22;14128;48.686;9.738;2023-07-31T01:38:32;10.80;1.40
316;DHT22;14128;48.686;9.738;2023-07-31T01:41:00;10.80;1.40
316;DHT22;14128;48.686;9.738;2023-07-31T01:43:26;10.80;1.40
316;DHT22;14128;48.686;9.738;2023-07-31T01:45:54;10.70;1.40
316;DHT22;14128;48.686;9.738;2023-07-31T01:48:20;10.70;1.40
316;DHT22;14128;48.686;9.738;2023-07-31T01:50:47;10.60;1.40
316;DHT22;14128;48.686;9.738;2023-07-31T01:53:15;10.60;1.40
316;DHT22;14128;48.686;9.738;2023-07-31T01:55:41;10.60;1.40
316;DHT22;14128;48.686;9.738;2023-07-31T01:58:09;10.50;1.40
316;DHT22;14128;48.686;9.738;2023-07-31T02:00:36;10.50;1.40
316;DHT22;14128;48.686;9.738;2023-07-31T02:03:03;10.50;1.40
316;DHT22;14128;48.686;9.738;2023-07-31T02:05:30;10.40;1.40
316;DHT22;14128;48.686;9.738;2023-07-31T02:07:56;10.40;1.40
316;DHT22;14128;48.686;9.738;2023-07-31T02:10:23;10.40;1.40
316;DHT22;14128;48.686;9.738;2023-07-31T02:12:50;10.40;1.40
316;DHT22;14128;48.686;9.738;2023-07-31T02:15:18;10.30;1.40
316;DHT22;14128;48.686;9.738;2023-07-31T02:17:45;10.30;1.40
316;DHT22;14128;48.686;9.738;2023-07-31T02:20:12;10.40;1.40
316;DHT22;14128;48.686;9.738;2023-07-31T02:22:38;10.30;1.40
316;DHT22;14128;48.686;9.738;2023-07-31T02:25:06;10.30;1.40
316;DHT22;14128;48.686;9.738;2023-07-31T02:27:32;10.30;1.40
316;DHT22;14128;48.686;9.738;2023-07-31T02:29:59;10.20;1.40
316;DHT22;14128;48.686;9.738;2023-07-31T02:32:27;10.20;1.40
316;DHT22;14128;48.686;9.738;2023-07-31T02:34:54;10.20;1.40
316;DHT22;14128;48.686;9.738;2023-07-31T02:37:21;10.20;1.40
316;DHT22;14128;48.686;9.738;2023-07-31T02:39:48;10.20;1.40
316;DHT22;14128;48.686;9.738;2023-07-31T02:42:15;10.10;1.40
316;DHT22;14128;48.686;9.738;2023-07-31T02:44:41;10.10;1.40
316;DHT22;14128;48.686;9.738;2023-07-31T02:47:08;10.10;1.40
316;DHT22;14128;48.686;9.738;2023-07-31T02:49:37;10.10;1.40
316;DHT22;14128;48.686;9.738;2023-07-31T02:52:04;10.10;1.40
316;DHT22;14128;48.686;9.738;2023-07-31T02:54:31;10.00;1.40
316;DHT22;14128;48.686;9.738;2023-07-31T02:56:57;10.00;1.40
316;DHT22;14128;48.686;9.738;2023-07-31T02:59:24;10.00;1.40
316;DHT22;14128;48.686;9.738;2023-07-31T03:01:51;10.00;1.40
316;DHT22;14128;48.686;9.738;2023-07-31T03:04:18;10.00;1.40
316;DHT22;14128;48.686;9.738;2023-07-31T03:06:46;10.00;1.40
316;DHT22;14128;48.686;9.738;2023-07-31T03:09:13;9.90;1.40
316;DHT22;14128;48.686;9.738;2023-07-31T03:11:40;9.90;1.40
316;DHT22;14128;48.686;9.738;2023-07-31T03:14:07;9.90;1.40
316;DHT22;14128;48.686;9.738;2023-07-31T03:16:33;9.80;1.40
316;DHT22;14128;48.686;9.738;2023-07-31T03:19:00;9.80;1.40
316;DHT22;14128;48.686;9.738;2023-07-31T03:21:27;9.80;1.40
316;DHT22;14128;48.686;9.738;2023-07-31T03:23:55;9.80;1.40
316;DHT22;14128;48.686;9.738;2023-07-31T03:26:22;9.80;1.40
316;DHT22;14128;48.686;9.738;2023-07-31T03:28:49;9.80;1.40
316;DHT22;14128;48.686;9.738;2023-07-31T03:31:16;9.70;1.40
316;DHT22;14128;48.686;9.738;2023-07-31T03:33:42;9.70;1.40
316;DHT22;14128;48.686;9.738;2023-07-31T03:36:09;9.70;1.40
316;DHT22;14128;48.686;9.738;2023-07-31T03:38:36;9.70;1.40
316;DHT22;14128;48.686;9.738;2023-07-31T03:41:04;9.70;1.40
316;DHT22;14128;48.686;9.738;2023-07-31T03:43:32;9.80;1.40
316;DHT22;14128;48.686;9.738;2023-07-31T03:45:59;9.80;1.40
316;DHT22;14128;48.686;9.738;2023-07-31T03:48:26;9.80;1.40
316;DHT22;14128;48.686;9.738;2023-07-31T03:50:53;9.80;1.40
316;DHT22;14128;48.686;9.738;2023-07-31T03:53:20;9.80;1.40
316;DHT22;14128;48.686;9.738;2023-07-31T03:55:46;9.90;1.40
316;DHT22;14128;48.686;9.738;2023-07-31T03:58:15;9.90;1.40
316;DHT22;14128;48.686;9.738;2023-07-31T04:00:41;9.90;1.40
316;DHT22;14128;48.686;9.738;2023-07-31T04:03:08;10.00;1.40
316;DHT22;14128;48.686;9.738;2023-07-31T04:05:38;10.10;1.40
316;DHT22;14128;48.686;9.738;2023-07-31T04:08:05;10.10;1.40
316;DHT22;14128;48.686;9.738;2023-07-31T04:10:32;10.10;1.40
316;DHT22;14128;48.686;9.738;2023-07-31T04:12:59;10.10;1.40
316;DHT22;14128;48.686;9.738;2023-07-31T04:15:27;10.10;1.40
316;DHT22;14128;48.686;9.738;2023-07-31T04:17:54;10.20;1.40
316;DHT22;14128;48.686;9.738;2023-07-31T04:20:21;10.20;1.40
316;DHT22;14128;48.686;9.738;2023-07-31T04:22:49;10.20;1.40
316;DHT22;14128;48.686;9.738;2023-07-31T04:25:15;10.30;1.40
316;DHT22;14128;48.686;9.738;2023-07-31T04:27:42;10.40;1.40
316;DHT22;14128;48.686;9.738;2023-07-31T04:30:09;10.40;1.40
316;DHT22;14128;48.686;9.738;2023-07-31T04:32:37;10.50;1.40
316;DHT22;14128;48.686;9.738;2023-07-31T04:35:05;10.60;1.40
316;DHT22;14128;48.686;9.738;2023-07-31T04:37:32;10.70;1.40
316;DHT22;14128;48.686;9.738;2023-07-31T04:39:58;10.90;1.40
316;DHT22;14128;48.686;9.738;2023-07-31T04:42:25;11.00;1.40
316;DHT22;14128;48.686;9.738;2023-07-31T04:44:52;11.20;1.40
316;DHT22;14128;48.686;9.738;2023-07-31T04:47:19;11.40;1.40
316;DHT22;14128;48.686;9.738;2023-07-31T04:49:47;11.50;1.40
316;DHT22;14128;48.686;9.738;2023-07-31T04:52:14;11.70;1.40
316;DHT22;14128;48.686;9.738;2023-07-31T04:54:41;11.80;1.40
316;DHT22;14128;48.686;9.738;2023-07-31T04:57:08;11.90;1.40
316;DHT22;14128;48.686;9.738;2023-07-31T04:59:34;12.00;1.40
316;DHT22;14128;48.686;9.738;2023-07-31T05:02:02;12.10;1.40
316;DHT22;14128;48.686;9.738;2023-07-31T05:04:29;12.20;1.40
316;DHT22;14128;48.686;9.738;2023-07-31T05:06:57;12.30;1.40
316;DHT22;14128;48.686;9.738;2023-07-31T05:09:24;12.50;1.40
316;DHT22;14128;48.686;9.738;2023-07-31T05:11:50;12.60;1.40
316;DHT22;14128;48.686;9.738;2023-07-31T05:14:17;12.80;1.40
316;DHT22;14128;48.686;9.738;2023-07-31T05:16:45;13.00;1.40
316;DHT22;14128;48.686;9.738;2023-07-31T05:19:12;13.10;1.40
316;DHT22;14128;48.686;9.738;2023-07-31T05:21:39;13.20;1.40
316;DHT22;14128;48.686;9.738;2023-07-31T05:24:08;13.30;1.40
316;DHT22;14128;48.686;9.738;2023-07-31T05:26:34;13.40;1.40
316;DHT22;14128;48.686;9.738;2023-07-31T05:29:01;13.60;1.40
316;DHT22;14128;48.686;9.738;2023-07-31T05:31:28;13.70;1.40
316;DHT22;14128;48.686;9.738;2023-07-31T05:33:55;13.90;1.40
316;DHT22;14128;48.686;9.738;2023-07-31T05:36:22;14.00;1.40
316;DHT22;14128;48.686;9.738;2023-07-31T05:38:48;14.20;1.40
316;DHT22;14128;48.686;9.738;2023-07-31T05:41:16;14.20;1.40
316;DHT22;14128;48.686;9.738;2023-07-31T05:43:43;14.30;1.40
316;DHT22;14128;48.686;9.738;2023-07-31T05:46:11;14.40;1.40
316;DHT22;14128;48.686;9.738;2023-07-31T05:48:38;14.50;1.40
316;DHT22;14128;48.686;9.738;2023-07-31T05:51:05;14.60;1.40
316;DHT22;14128;48.686;9.738;2023-07-31T05:53:32;14.70;1.40
316;DHT22;14128;48.686;9.738;2023-07-31T05:55:59;14.80;1.40
316;DHT22;14128;48.686;9.738;2023-07-31T05:58:27;14.90;1.40
316;DHT22;14128;48.686;9.738;2023-07-31T06:00:54;15.20;1.40
316;DHT22;14128;48.686;9.738;2023-07-31T06:03:21;15.30;1.40
316;DHT22;14128;48.686;9.738;2023-07-31T06:05:47;15.50;1.40
316;DHT22;14128;48.686;9.738;2023-07-31T06:08:14;15.70;1.40
316;DHT22;14128;48.686;9.738;2023-07-31T06:10:41;15.80;1.40
316;DHT22;14128;48.686;9.738;2023-07-31T06:13:08;15.80;1.40
316;DHT22;14128;48.686;9.738;2023-07-31T06:15:36;15.70;1.40
316;DHT22;14128;48.686;9.738;2023-07-31T06:18:03;15.50;1.40
316;DHT22;14128;48.686;9.738;2023-07-31T06:20:33;15.70;1.40
316;DHT22;14128;48.686;9.738;2023-07-31T06:23:00;15.90;1.40
316;DHT22;14128;48.686;9.738;2023-07-31T06:25:26;16.20;1.40
316;DHT22;14128;48.686;9.738;2023-07-31T06:27:53;16.30;1.40
316;DHT22;14128;48.686;9.738;2023-07-31T06:30:20;16.50;1.40
316;DHT22;14128;48.686;9.738;2023-07-31T06:32:48;16.60;1.40
316;DHT22;14128;48.686;9.738;2023-07-31T06:35:15;16.70;1.40
316;DHT22;14128;48.686;9.738;2023-07-31T06:37:42;16.80;1.40
316;DHT22;14128;48.686;9.738;2023-07-31T06:40:10;17.10;1.40
316;DHT22;14128;48.686;9.738;2023-07-31T06:42:37;17.20;1.40
316;DHT22;14128;48.686;9.738;2023-07-31T06:45:05;17.20;1.40
316;DHT22;14128;48.686;9.738;2023-07-31T06:47:31;17.30;1.40
316;DHT22;14128;48.686;9.738;2023-07-31T06:50:00;17.20;1.40
316;DHT22;14128;48.686;9.738;2023-07-31T06:52:26;17.10;1.40
316;DHT22;14128;48.686;9.738;2023-07-31T06:55:04;17.20;1.40
316;DHT22;14128;48.686;9.738;2023-07-31T06:57:42;17.20;1.40
316;DHT22;14128;48.686;9.738;2023-07-31T07:00:09;17.30;1.40
316;DHT22;14128;48.686;9.738;2023-07-31T07:02:36;17.30;1.40
316;DHT22;14128;48.686;9.738;2023-07-31T07:05:05;17.30;1.40
316;DHT22;14128;48.686;9.738;2023-07-31T07:07:33;17.30;1.40
316;DHT22;14128;48.686;9.738;2023-07-31T07:10:00;17.20;1.40
316;DHT22;14128;48.686;9.738;2023-07-31T07:12:29;17.20;1.40
316;DHT22;14128;48.686;9.738;2023-07-31T07:14:56;17.10;1.40
316;DHT22;14128;48.686;9.738;2023-07-31T07:17:23;17.10;1.40
316;DHT22;14128;48.686;9.738;2023-07-31T07:19:50;17.00;1.40
316;DHT22;14128;48.686;9.738;2023-07-31T07:22:18;16.90;1.40
316;DHT22;14128;48.686;9.738;2023-07-31T07:24:45;16.90;1.40
316;DHT22;14128;48.686;9.738;2023-07-31T07:27:12;16.90;1.40
316;DHT22;14128;48.686;9.738;2023-07-31T07:29:38;17.00;1.40
316;DHT22;14128;48.686;9.738;2023-07-31T07:32:06;17.00;1.40
316;DHT22;14128;48.686;9.738;2023-07-31T07:34:33;17.10;1.40
316;DHT22;14128;48.686;9.738;2023-07-31T07:36:59;17.40;1.40
316;DHT22;14128;48.686;9.738;2023-07-31T07:39:27;17.70;1.40
316;DHT22;14128;48.686;9.738;2023-07-31T07:41:54;18.10;1.40
316;DHT22;14128;48.686;9.738;2023-07-31T07:44:21;18.60;1.40
316;DHT22;14128;48.686;9.738;2023-07-31T07:46:48;19.00;1.40
316;DHT22;14128;48.686;9.738;2023-07-31T07:49:15;19.40;1.40
316;DHT22;14128;48.686;9.738;2023-07-31T07:51:41;19.60;1.40
316;DHT22;14128;48.686;9.738;2023-07-31T07:54:08;19.70;1.40
316;DHT22;14128;48.686;9.738;2023-07-31T07:56:36;19.90;1.40
316;DHT22;14128;48.686;9.738;2023-07-31T07:59:03;20.10;1.40
316;DHT22;14128;48.686;9.738;2023-07-31T08:01:30;20.30;1.40
316;DHT22;14128;48.686;9.738;2023-07-31T08:03:58;20.20;1.40
316;DHT22;14128;48.686;9.738;2023-07-31T08:06:25;20.00;1.40
316;DHT22;14128;48.686;9.738;2023-07-31T08:08:51;19.70;1.40
316;DHT22;14128;48.686;9.738;2023-07-31T08:11:18;19.50;1.40
316;DHT22;14128;48.686;9.738;2023-07-31T08:13:46;19.40;1.40
316;DHT22;14128;48.686;9.738;2023-07-31T08:16:13;19.50;1.40
316;DHT22;14128;48.686;9.738;2023-07-31T08:18:40;19.70;1.40
316;DHT22;14128;48.686;9.738;2023-07-31T08:21:08;19.80;1.40
316;DHT22;14128;48.686;9.738;2023-07-31T08:23:34;19.80;1.40
316;DHT22;14128;48.686;9.738;2023-07-31T08:26:01;19.80;1.40
316;DHT22;14128;48.686;9.738;2023-07-31T08:28:28;19.90;1.40
316;DHT22;14128;48.686;9.738;2023-07-31T08:30:56;20.10;1.40
316;DHT22;14128;48.686;9.738;2023-07-31T08:33:23;20.20;1.40
316;DHT22;14128;48.686;9.738;2023-07-31T08:35:50;20.50;1.40
316;DHT22;14128;48.686;9.738;2023-07-31T08:38:16;20.60;1.40
316;DHT22;14128;48.686;9.738;2023-07-31T08:40:43;20.70;1.40
316;DHT22;14128;48.686;9.738;2023-07-31T08:43:10;20.70;1.40
316;DHT22;14128;48.686;9.738;2023-07-31T08:45:38;20.60;1.40
316;DHT22;14128;48.686;9.738;2023-07-31T08:48:09;20.30;1.40
316;DHT22;14128;48.686;9.738;2023-07-31T08:50:38;20.20;1.40
316;DHT22;14128;48.686;9.738;2023-07-31T08:53:05;20.10;1.40
316;DHT22;14128;48.686;9.738;2023-07-31T08:55:32;20.20;1.40
316;DHT22;14128;48.686;9.738;2023-07-31T08:58:00;20.10;1.40
316;DHT22;14128;48.686;9.738;2023-07-31T09:00:29;20.10;1.40
316;DHT22;14128;48.686;9.738;2023-07-31T09:03:00;20.20;1.40
316;DHT22;14128;48.686;9.738;2023-07-31T09:05:31;20.40;1.40
316;DHT22;14128;48.686;9.738;2023-07-31T09:07:58;20.80;1.40
316;DHT22;14128;48.686;9.738;2023-07-31T09:10:25;20.90;1.40
316;DHT22;14128;48.686;9.738;2023-07-31T09:12:52;20.90;1.40
316;DHT22;14128;48.686;9.738;2023-07-31T09:15:19;20.70;1.40
316;DHT22;14128;48.686;9.738;2023-07-31T09:17:46;20.60;1.40
316;DHT22;14128;48.686;9.738;2023-07-31T09:20:14;20.60;1.40
316;DHT22;14128;48.686;9.738;2023-07-31T09:22:43;20.50;1.40
316;DHT22;14128;48.686;9.738;2023-07-31T09:25:16;20.50;1.40
316;DHT22;14128;48.686;9.738;2023-07-31T09:27:48;20.60;1.40
316;DHT22;14128;48.686;9.738;2023-07-31T09:30:15;20.80;1.40
316;DHT22;14128;48.686;9.738;2023-07-31T09:32:42;21.00;1.40
316;DHT22;14128;48.686;9.738;2023-07-31T09:35:20;21.10;1.40
316;DHT22;14128;48.686;9.738;2023-07-31T09:37:52;21.10;1.40
316;DHT22;14128;48.686;9.738;2023-07-31T09:40:27;21.30;1.40
316;DHT22;14128;48.686;9.738;2023-07-31T09:42:56;21.50;1.40
316;DHT22;14128;48.686;9.738;2023-07-31T09:45:24;21.60;1.40
316;DHT22;14128;48.686;9.738;2023-07-31T09:47:51;21.90;1.40
316;DHT22;14128;48.686;9.738;2023-07-31T09:50:20;21.90;1.40
316;DHT22;14128;48.686;9.738;2023-07-31T09:52:47;22.40;1.40
316;DHT22;14128;48.686;9.738;2023-07-31T09:55:15;22.80;1.40
316;DHT22;14128;48.686;9.738;2023-07-31T09:57:44;23.00;1.40
316;DHT22;14128;48.686;9.738;2023-07-31T10:00:12;23.20;1.40
316;DHT22;14128;48.686;9.738;2023-07-31T10:02:41;23.40;1.40
316;DHT22;14128;48.686;9.738;2023-07-31T10:05:08;23.70;1.40
316;DHT22;14128;48.686;9.738;2023-07-31T10:07:37;23.70;1.40
316;DHT22;14128;48.686;9.738;2023-07-31T10:10:07;23.70;1.40
316;DHT22;14128;48.686;9.738;2023-07-31T10:12:36;23.60;1.40
316;DHT22;14128;48.686;9.738;2023-07-31T10:15:03;24.00;1.40
316;DHT22;14128;48.686;9.738;2023-07-31T10:17:31;24.40;1.40
316;DHT22;14128;48.686;9.738;2023-07-31T10:19:58;24.60;1.40
316;DHT22;14128;48.686;9.738;2023-07-31T10:22:26;24.40;1.40
316;DHT22;14128;48.686;9.738;2023-07-31T10:24:55;24.80;1.40
316;DHT22;14128;48.686;9.738;2023-07-31T10:27:22;24.90;1.40
316;DHT22;14128;48.686;9.738;2023-07-31T10:29:52;24.70;1.40
316;DHT22;14128;48.686;9.738;2023-07-31T10:32:20;24.50;1.40
316;DHT22;14128;48.686;9.738;2023-07-31T10:34:48;24.40;1.40
316;DHT22;14128;48.686;9.738;2023-07-31T10:37:25;24.70;1.40
316;DHT22;14128;48.686;9.738;2023-07-31T10:39:57;24.70;1.40
316;DHT22;14128;48.686;9.738;2023-07-31T10:42:32;25.00;1.40
316;DHT22;14128;48.686;9.738;2023-07-31T10:45:02;25.60;1.40
316;DHT22;14128;48.686;9.738;2023-07-31T10:47:29;25.20;1.40
316;DHT22;14128;48.686;9.738;2023-07-31T10:50:16;24.60;1.40
316;DHT22;14128;48.686;9.738;2023-07-31T10:52:46;23.70;1.40
316;DHT22;14128;48.686;9.738;2023-07-31T10:55:28;23.20;1.40
316;DHT22;14128;48.686;9.738;2023-07-31T10:57:57;22.80;1.40
316;DHT22;14128;48.686;9.738;2023-07-31T11:00:27;22.60;1.40
316;DHT22;14128;48.686;9.738;2023-07-31T11:02:59;22.70;1.40
316;DHT22;14128;48.686;9.738;2023-07-31T11:05:50;22.50;1.40
316;DHT22;14128;48.686;9.738;2023-07-31T11:08:20;22.50;1.40
316;DHT22;14128;48.686;9.738;2023-07-31T11:10:49;22.60;1.40
316;DHT22;14128;48.686;9.738;2023-07-31T11:13:16;22.80;1.40
316;DHT22;14128;48.686;9.738;2023-07-31T11:15:45;22.90;1.40
316;DHT22;14128;48.686;9.738;2023-07-31T11:18:11;23.20;1.40
316;DHT22;14128;48.686;9.738;2023-07-31T11:20:38;23.60;1.40
316;DHT22;14128;48.686;9.738;2023-07-31T11:23:07;23.80;1.40
316;DHT22;14128;48.686;9.738;2023-07-31T11:25:35;24.20;1.40
316;DHT22;14128;48.686;9.738;2023-07-31T11:28:03;24.30;1.40
316;DHT22;14128;48.686;9.738;2023-07-31T11:30:30;24.70;1.40
316;DHT22;14128;48.686;9.738;2023-07-31T11:33:00;24.50;1.40
316;DHT22;14128;48.686;9.738;2023-07-31T11:35:28;25.40;1.40
316;DHT22;14128;48.686;9.738;2023-07-31T11:37:55;26.00;1.40
316;DHT22;14128;48.686;9.738;2023-07-31T11:40:22;26.30;1.40
316;DHT22;14128;48.686;9.738;2023-07-31T11:42:54;26.70;1.40
316;DHT22;14128;48.686;9.738;2023-07-31T11:45:21;26.40;1.40
316;DHT22;14128;48.686;9.738;2023-07-31T11:47:50;26.50;1.40
316;DHT22;14128;48.686;9.738;2023-07-31T11:50:19;26.40;1.40
316;DHT22;14128;48.686;9.738;2023-07-31T11:52:46;26.70;1.40
316;DHT22;14128;48.686;9.738;2023-07-31T11:55:16;26.50;1.40
316;DHT22;14128;48.686;9.738;2023-07-31T11:57:44;26.50;1.40
316;DHT22;14128;48.686;9.738;2023-07-31T12:00:13;26.90;1.40
316;DHT22;14128;48.686;9.738;2023-07-31T12:02:40;26.70;1.40
316;DHT22;14128;48.686;9.738;2023-07-31T12:05:10;26.60;1.40
316;DHT22;14128;48.686;9.738;2023-07-31T12:07:50;26.60;1.40
316;DHT22;14128;48.686;9.738;2023-07-31T12:10:27;26.60;1.40
316;DHT22;14128;48.686;9.738;2023-07-31T12:13:02;26.40;1.40
316;DHT22;14128;48.686;9.738;2023-07-31T12:15:33;26.20;1.40
316;DHT22;14128;48.686;9.738;2023-07-31T12:18:04;26.10;1.40
316;DHT22;14128;48.686;9.738;2023-07-31T12:20:32;26.00;1.40
316;DHT22;14128;48.686;9.738;2023-07-31T12:23:00;25.80;1.40
316;DHT22;14128;48.686;9.738;2023-07-31T12:25:31;26.20;1.40
316;DHT22;14128;48.686;9.738;2023-07-31T12:28:04;26.10;1.40
316;DHT22;14128;48.686;9.738;2023-07-31T12:30:33;26.00;1.40
316;DHT22;14128;48.686;9.738;2023-07-31T12:33:03;26.10;1.40
316;DHT22;14128;48.686;9.738;2023-07-31T12:35:36;26.10;1.40
316;DHT22;14128;48.686;9.738;2023-07-31T12:38:04;26.20;1.40
316;DHT22;14128;48.686;9.738;2023-07-31T12:40:31;26.60;1.40
316;DHT22;14128;48.686;9.738;2023-07-31T12:43:01;26.40;1.40
316;DHT22;14128;48.686;9.738;2023-07-31T12:45:29;26.50;1.40
316;DHT22;14128;48.686;9.738;2023-07-31T12:47:56;26.60;1.40
316;DHT22;14128;48.686;9.738;2023-07-31T12:50:23;26.30;1.40
316;DHT22;14128;48.686;9.738;2023-07-31T12:52:51;26.30;1.40
316;DHT22;14128;48.686;9.738;2023-07-31T12:55:19;26.20;1.40
316;DHT22;14128;48.686;9.738;2023-07-31T12:57:46;26.50;1.40
316;DHT22;14128;48.686;9.738;2023-07-31T13:00:14;26.60;1.40
316;DHT22;14128;48.686;9.738;2023-07-31T13:02:40;26.90;1.40
316;DHT22;14128;48.686;9.738;2023-07-31T13:05:08;26.80;1.40
316;DHT22;14128;48.686;9.738;2023-07-31T13:07:34;27.30;1.40
316;DHT22;14128;48.686;9.738;2023-07-31T13:10:01;27.00;1.40
316;DHT22;14128;48.686;9.738;2023-07-31T13:12:29;26.50;1.40
316;DHT22;14128;48.686;9.738;2023-07-31T13:14:56;26.20;1.40
316;DHT22;14128;48.686;9.738;2023-07-31T13:17:23;25.60;1.40
316;DHT22;14128;48.686;9.738;2023-07-31T13:19:50;25.60;1.40
316;DHT22;14128;48.686;9.738;2023-07-31T13:22:17;25.60;1.40
316;DHT22;14128;48.686;9.738;2023-07-31T13:24:43;25.60;1.40
316;DHT22;14128;48.686;9.738;2023-07-31T13:27:10;25.00;1.40
316;DHT22;14128;48.686;9.738;2023-07-31T13:29:38;24.50;1.40
316;DHT22;14128;48.686;9.738;2023-07-31T13:32:05;24.00;1.40
316;DHT22;14128;48.686;9.738;2023-07-31T13:34:32;24.00;1.40
316;DHT22;14128;48.686;9.738;2023-07-31T13:36:59;24.30;1.40
316;DHT22;14128;48.686;9.738;2023-07-31T13:39:26;25.20;1.40
316;DHT22;14128;48.686;9.738;2023-07-31T13:41:53;26.00;1.40
316;DHT22;14128;48.686;9.738;2023-07-31T13:44:20;27.00;1.40
316;DHT22;14128;48.686;9.738;2023-07-31T13:46:48;27.70;1.40
316;DHT22;14128;48.686;9.738;2023-07-31T13:49:15;27.40;1.40
316;DHT22;14128;48.686;9.738;2023-07-31T13:51:42;27.00;1.40
316;DHT22;14128;48.686;9.738;2023-07-31T13:54:09;26.60;1.40
316;DHT22;14128;48.686;9.738;2023-07-31T13:56:37;26.20;1.40
316;DHT22;14128;48.686;9.738;2023-07-31T13:59:03;25.60;1.40
316;DHT22;14128;48.686;9.738;2023-07-31T14:01:30;25.20;1.40
316;DHT22;14128;48.686;9.738;2023-07-31T14:03:59;25.00;1.40
316;DHT22;14128;48.686;9.738;2023-07-31T14:06:25;25.10;1.40
316;DHT22;14128;48.686;9.738;2023-07-31T14:08:52;25.10;1.40
316;DHT22;14128;48.686;9.738;2023-07-31T14:11:19;25.00;1.40
316;DHT22;14128;48.686;9.738;2023-07-31T14:13:46;24.60;1.40
316;DHT22;14128;48.686;9.738;2023-07-31T14:16:13;24.40;1.40
316;DHT22;14128;48.686;9.738;2023-07-31T14:18:39;24.30;1.40
316;DHT22;14128;48.686;9.738;2023-07-31T14:21:08;24.20;1.40
316;DHT22;14128;48.686;9.738;2023-07-31T14:23:34;23.90;1.40
316;DHT22;14128;48.686;9.738;2023-07-31T14:26:01;23.70;1.40
316;DHT22;14128;48.686;9.738;2023-07-31T14:28:28;23.50;1.40
316;DHT22;14128;48.686;9.738;2023-07-31T14:30:55;23.40;1.40
316;DHT22;14128;48.686;9.738;2023-07-31T14:33:22;23.20;1.40
316;DHT22;14128;48.686;9.738;2023-07-31T14:35:49;23.10;1.40
316;DHT22;14128;48.686;9.738;2023-07-31T14:38:17;23.30;1.40
316;DHT22;14128;48.686;9.738;2023-07-31T14:40:44;23.50;1.40
316;DHT22;14128;48.686;9.738;2023-07-31T14:43:11;23.70;1.40
316;DHT22;14128;48.686;9.738;2023-07-31T14:45:37;23.70;1.40
316;DHT22;14128;48.686;9.738;2023-07-31T14:48:04;23.70;1.40
316;DHT22;14128;48.686;9.738;2023-07-31T14:50:31;23.70;1.40
316;DHT22;14128;48.686;9.738;2023-07-31T14:52:58;24.00;1.40
316;DHT22;14128;48.686;9.738;2023-07-31T14:55:26;24.00;1.40
316;DHT22;14128;48.686;9.738;2023-07-31T14:57:53;24.10;1.40
316;DHT22;14128;48.686;9.738;2023-07-31T15:00:20;23.90;1.40
316;DHT22;14128;48.686;9.738;2023-07-31T15:02:47;24.00;1.40
316;DHT22;14128;48.686;9.738;2023-07-31T15:05:14;24.00;1.40
316;DHT22;14128;48.686;9.738;2023-07-31T15:07:41;24.00;1.40
316;DHT22;14128;48.686;9.738;2023-07-31T15:10:08;24.00;1.40
316;DHT22;14128;48.686;9.738;2023-07-31T15:12:36;24.10;1.40
316;DHT22;14128;48.686;9.738;2023-07-31T15:15:05;24.20;1.40
316;DHT22;14128;48.686;9.738;2023-07-31T15:17:32;24.20;1.40
316;DHT22;14128;48.686;9.738;2023-07-31T15:19:59;24.50;1.40
316;DHT22;14128;48.686;9.738;2023-07-31T15:22:26;24.60;1.40
316;DHT22;14128;48.686;9.738;2023-07-31T15:24:53;24.50;1.40
316;DHT22;14128;48.686;9.738;2023-07-31T15:27:20;24.40;1.40
316;DHT22;14128;48.686;9.738;2023-07-31T15:29:49;24.50;1.40
316;DHT22;14128;48.686;9.738;2023-07-31T15:32:16;24.30;1.40
316;DHT22;14128;48.686;9.738;2023-07-31T15:34:44;24.20;1.40
316;DHT22;14128;48.686;9.738;2023-07-31T15:37:11;24.20;1.40
316;DHT22;14128;48.686;9.738;2023-07-31T15:39:38;24.20;1.40
316;DHT22;14128;48.686;9.738;2023-07-31T15:42:05;24.00;1.40
316;DHT22;14128;48.686;9.738;2023-07-31T15:44:34;23.80;1.40
316;DHT22;14128;48.686;9.738;2023-07-31T15:47:02;23.80;1.40
316;DHT22;14128;48.686;9.738;2023-07-31T15:49:29;23.80;1.40
316;DHT22;14128;48.686;9.738;2023-07-31T15:51:56;23.90;1.40
316;DHT22;14128;48.686;9.738;2023-07-31T15:54:23;23.80;1.40
316;DHT22;14128;48.686;9.738;2023-07-31T15:56:50;23.90;1.40
316;DHT22;14128;48.686;9.738;2023-07-31T15:59:16;24.20;1.40
316;DHT22;14128;48.686;9.738;2023-07-31T16:01:43;24.30;1.40
316;DHT22;14128;48.686;9.738;2023-07-31T16:04:11;24.20;1.40
316;DHT22;14128;48.686;9.738;2023-07-31T16:06:38;24.20;1.40
316;DHT22;14128;48.686;9.738;2023-07-31T16:09:05;24.30;1.40
316;DHT22;14128;48.686;9.738;2023-07-31T16:11:32;24.20;1.40
316;DHT22;14128;48.686;9.738;2023-07-31T16:13:58;24.40;1.40
316;DHT22;14128;48.686;9.738;2023-07-31T16:16:27;24.80;1.40
316;DHT22;14128;48.686;9.738;2023-07-31T16:18:54;25.60;1.40
316;DHT22;14128;48.686;9.738;2023-07-31T16:21:22;26.00;1.40
316;DHT22;14128;48.686;9.738;2023-07-31T16:23:49;26.40;1.40